Hartford, Connecticut
Traffic Map
Current Weather Conditions
Hartford, Connecticut
Overcast
Overcast
57°
Feels Like: 57°
Wind Chill: 57° Ceiling: 9500
Heat Index: 57° Visibility: 10mi
Dew Point: 45° Wind: 6mph
Humidity: 64% Direction: 180° (S)
Pressure: 29.6in Gusts: 0mph
Raw Report DataKHFD 252353Z AUTO 18005KT 10SM OVC095 14/07 A2960 RMK AO2 SLP022 T01390072 10189 20128 58008
Traffic Incident Summary
Active as of:
Severity:
Category:
InformationThere was an issue retrieving the traffic information for this location. Please try a different location or try again shortly.
Advertisements
Track Severe Weather on mobile